Aviation Digital Data Service (ADDS)

Output produced by METARs form (0839 UTC 21 October 2017)
found at http://www.aviationweather.gov/adds/metars/
 
KAOO 210753Z AUTO 00000KT 10SM CLR 08/04 A3028 RMK AO2 SLP254 T00830039
KAOO 210653Z AUTO 00000KT 10SM CLR 09/03 A3029 RMK AO2 SLP254 T00940033
KAOO 210553Z AUTO 00000KT 10SM CLR 12/03 A3029 RMK AO2 SLP253 T01220033 10144 20089 51003
KAOO 210453Z AUTO 26003KT 10SM CLR 11/04 A3029 RMK AO2 SLP255 T01060044 402280094
KAOO 210353Z AUTO 18003KT 10SM CLR 09/04 A3028 RMK AO2 SLP255 T00940044
KAOO 210253Z AUTO 00000KT 10SM CLR 10/05 A3028 RMK AO2 SLP253 T01000050 53008
KAOO 210153Z AUTO 25004KT 10SM CLR 13/03 A3026 RMK AO2 SLP248 T01330028
KAOO 210053Z AUTO 00000KT 10SM CLR 12/04 A3025 RMK AO2 SLP244 T01220039
KAOO 202353Z AUTO 16003KT 10SM CLR 13/06 A3025 RMK AO2 SLP246 T01280056 10228 20122 53006
KAOO 202253Z AUTO 00000KT 10SM CLR 17/02 A3024 RMK AO2 SLP241 T01670022
KAOO 202153Z AUTO 00000KT 6SM HZ CLR 21/02 A3023 RMK AO2 SLP234 T02110017
KAOO 202053Z AUTO 02005KT 10SM CLR 23/00 A3023 RMK AO2 SLP233 T02280000 56008
KAOO 201953Z AUTO 03007KT 10SM CLR 22/00 A3024 RMK AO2 SLP235 T02220000
KAOO 201853Z AUTO 02008KT 10SM CLR 23/M01 A3025 RMK AO2 SLP236 T02281006
KAOO 201753Z AUTO VRB04KT 10SM CLR 21/M02 A3026 RMK AO2 SLP242 T02111017 10217 20117 58011
KAOO 201653Z AUTO 36007KT 10SM CLR 21/M01 A3028 RMK AO2 SLP250 T02061006
KAOO 201553Z AUTO 36005KT 10SM CLR 19/04 A3029 RMK AO2 SLPNO T01940039
KAOO 201453Z AUTO 30007KT 10SM CLR 18/06 A3029 RMK AO2 SLPNO T01780061 51011
KAOO 201353Z AUTO 32008KT 10SM CLR 16/09 A3029 RMK AO2 SLP255 T01560094
KAOO 201253Z AUTO 30006KT 10SM CLR 14/09 A3028 RMK AO2 SLP252 T01390094
KAOO 201153Z AUTO 00000KT 10SM CLR 12/08 A3026 RMK AO2 SLP246 T01220083 10156 20106 53018
KAOO 201053Z AUTO 00000KT 10SM CLR 12/08 A3024 RMK AO2 SLP239 T01220078 $
KAOO 200953Z AUTO 28004KT 10SM CLR 14/08 A3022 RMK AO2 SLP230 T01440083 $
KAOO 200853Z AUTO 32004KT 10SM CLR 14/08 A3020 RMK AO2 SLP222 T01440078 53007 $
KAOO 200753Z AUTO 33003KT 10SM CLR 14/08 A3019 RMK AO2 SLP219 T01390078 $
KAOO 200653Z AUTO 00000KT 10SM CLR 14/08 A3019 RMK AO2 SLP217 T01390078 $
KAOO 200553Z AUTO 20007KT 10SM CLR 14/07 A3018 RMK AO2 SLP215 T01390072 58001 $
KAOO 200453Z AUTO 15005KT 10SM CLR 13/07 A3019 RMK AO2 SLP218 T01280067 402330056 $
KAOO 200353Z AUTO A3019 RMK AO2 SLPNO PWINO FZRANO $
KAOO 200253Z AUTO A3018 RMK AO2 SLPNO 52005 PWINO FZRANO $
KAOO 200153Z AUTO 24005KT 10SM CLR 16/06 A3018 RMK AO2 SLP218 T01610061
KAOO 200053Z AUTO 24007KT 10SM CLR 16/06 A3018 RMK AO2 SLP220 T01560061
KAOO 192353Z AUTO 23005KT 10SM CLR 16/06 A3017 RMK AO2 SLP219 T01610056 10233 20161 53006
KAOO 192253Z AUTO 25007KT 10SM CLR 17/04 A3016 RMK AO2 SLP214 T01720044
KAOO 192153Z AUTO 25008KT 10SM CLR 19/04 A3014 RMK AO2 SLP206 T01940039
KAOO 192053Z AUTO 28011KT 10SM CLR 22/02 A3015 RMK AO2 SLP206 T02170022 55008